Time;durP1;ratioP1;P1;durP2;ratioP2;P2;SDS_P1;SDS_P2;PMS_P1;PMS_P2;Temp;Humidity;BMP_temperature;BMP_pressure;BME280_temperature;BME280_humidity;BME280_pressure;Samples;Min_cycle;Max_cycle;Signal;HPM_P1;HPM_P2
2021/04/29 00:02:13;;;;;;;1.23;1.23;;;22.70;45.20;;;;;;5086793;28;20366;-38
2021/04/29 00:04:39;;;;;;;2.03;1.23;;;22.70;45.10;;;;;;5109751;28;20032;-39
2021/04/29 00:07:05;;;;;;;1.20;1.20;;;22.70;45.00;;;;;;5112141;28;20076;-40
2021/04/29 00:09:32;;;;;;;1.75;1.65;;;22.70;44.90;;;;;;5109514;28;20108;-39
2021/04/29 00:11:57;;;;;;;1.60;1.50;;;22.70;45.00;;;;;;5109057;28;20020;-39
2021/04/29 00:14:23;;;;;;;1.40;1.38;;;22.80;45.00;;;;;;5108080;28;20073;-37
2021/04/29 00:16:48;;;;;;;1.40;1.30;;;22.70;44.90;;;;;;5108826;28;20024;-37
2021/04/29 00:19:14;;;;;;;1.58;1.50;;;22.70;45.00;;;;;;5111359;28;20042;-39
2021/04/29 00:21:39;;;;;;;1.85;1.75;;;22.70;45.00;;;;;;5111631;28;20030;-40
2021/04/29 00:24:06;;;;;;;1.30;1.30;;;22.70;45.00;;;;;;5112996;28;20024;-38
2021/04/29 00:26:32;;;;;;;1.35;1.35;;;22.70;45.00;;;;;;5113204;28;20109;-39
2021/04/29 00:28:57;;;;;;;1.50;1.40;;;22.70;44.90;;;;;;5095766;28;20527;-36
2021/04/29 00:31:23;;;;;;;1.10;1.10;;;22.70;45.00;;;;;;5112917;28;20024;-40
2021/04/29 00:33:49;;;;;;;1.20;1.20;;;22.60;44.90;;;;;;5112208;28;20068;-40
2021/04/29 00:36:14;;;;;;;1.25;1.25;;;22.70;44.80;;;;;;5111622;28;20055;-38
2021/04/29 00:38:40;;;;;;;1.50;1.40;;;22.60;44.80;;;;;;5110828;28;20043;-40
2021/04/29 00:41:06;;;;;;;1.80;1.27;;;22.60;44.90;;;;;;5112011;28;20022;-36
2021/04/29 00:43:32;;;;;;;0.80;0.80;;;22.70;44.90;;;;;;5113052;28;20062;-37
2021/04/29 00:45:58;;;;;;;1.50;1.40;;;22.60;44.90;;;;;;5114360;28;20077;-38
2021/04/29 00:48:23;;;;;;;1.10;1.10;;;22.60;44.90;;;;;;5110920;28;20035;-40
2021/04/29 00:50:50;;;;;;;1.17;1.15;;;22.60;44.90;;;;;;5092354;28;20629;-40
2021/04/29 00:53:15;;;;;;;1.27;1.20;;;22.60;44.80;;;;;;5090860;28;20035;-39
2021/04/29 00:55:41;;;;;;;0.98;0.98;;;22.60;44.80;;;;;;5106128;28;20020;-38
2021/04/29 00:58:07;;;;;;;1.40;1.30;;;22.60;44.80;;;;;;5108030;28;20114;-38
2021/04/29 01:00:34;;;;;;;1.20;1.20;;;22.60;44.80;;;;;;5107652;28;20024;-34
2021/04/29 01:03:08;;;;;;;1.10;1.10;;;22.60;44.80;;;;;;5107495;28;20098;-40
2021/04/29 01:05:39;;;;;;;1.40;1.30;;;22.60;44.80;;;;;;5075127;28;20477;-41
2021/04/29 01:08:36;;;;;;;1.13;1.13;;;22.60;44.80;;;;;;5105792;28;20092;-40
2021/04/29 01:11:03;;;;;;;1.20;1.20;;;22.60;44.80;;;;;;5086471;28;20034;-39
2021/04/29 01:13:30;;;;;;;1.30;1.20;;;22.50;44.80;;;;;;5070147;28;20385;-40
2021/04/29 01:15:56;;;;;;;1.50;1.40;;;22.60;44.70;;;;;;5107669;28;20012;-40
2021/04/29 01:18:23;;;;;;;1.65;1.50;;;22.50;44.80;;;;;;5087386;28;20042;-39
2021/04/29 01:21:12;;;;;;;1.60;1.50;;;22.50;44.80;;;;;;5104317;28;20015;-38
2021/04/29 01:23:41;;;;;;;1.17;1.17;;;22.50;44.80;;;;;;5110642;28;20024;-38
2021/04/29 01:26:29;;;;;;;1.25;1.23;;;22.50;44.80;;;;;;5110875;28;20026;-40
2021/04/29 01:28:55;;;;;;;1.50;1.50;;;22.50;44.80;;;;;;5111776;28;20028;-39
2021/04/29 01:31:31;;;;;;;1.30;1.30;;;22.50;44.70;;;;;;5112469;28;20115;-41
2021/04/29 01:33:57;;;;;;;1.25;1.25;;;22.50;45.50;;;;;;5113523;28;20023;-39
2021/04/29 01:36:23;;;;;;;1.10;1.10;;;22.50;44.80;;;;;;5111196;28;20105;-39
2021/04/29 01:38:49;;;;;;;1.27;1.20;;;22.50;45.40;;;;;;5094199;28;20048;-39
2021/04/29 01:41:14;;;;;;;1.10;1.10;;;22.40;44.80;;;;;;5091456;28;20023;-40
2021/04/29 01:43:40;;;;;;;1.10;1.10;;;22.40;44.70;;;;;;5095259;28;20028;-40
2021/04/29 01:46:06;;;;;;;1.50;1.38;;;22.40;44.80;;;;;;5112887;28;20106;-39
2021/04/29 01:48:32;;;;;;;1.58;1.48;;;22.40;44.80;;;;;;5093258;28;20102;-36
2021/04/29 01:50:57;;;;;;;1.33;1.33;;;22.50;44.90;;;;;;5084529;28;20042;-40
2021/04/29 01:53:26;;;;;;;1.50;1.40;;;22.40;44.80;;;;;;5073038;28;20481;-37
2021/04/29 01:55:52;;;;;;;1.10;1.10;;;22.40;44.80;;;;;;5095107;28;20031;-39
2021/04/29 01:58:18;;;;;;;1.38;1.27;;;22.40;45.00;;;;;;5076790;28;20406;-38
2021/04/29 02:00:43;;;;;;;1.10;1.10;;;22.40;44.90;;;;;;5112286;28;20018;-37
2021/04/29 02:03:09;;;;;;;1.30;1.30;;;22.40;44.90;;;;;;5111588;28;20385;-40
2021/04/29 02:05:35;;;;;;;1.55;1.45;;;22.40;45.00;;;;;;5110369;28;20028;-40
2021/04/29 02:08:00;;;;;;;1.50;1.40;;;22.40;45.00;;;;;;5094147;28;20111;-41
2021/04/29 02:10:26;;;;;;;1.30;1.30;;;22.40;44.90;;;;;;5094253;28;20061;-41
2021/04/29 02:12:55;;;;;;;1.38;1.38;;;22.40;44.80;;;;;;5092094;28;20493;-41
2021/04/29 02:15:24;;;;;;;1.30;1.20;;;22.40;44.90;;;;;;5088907;28;20420;-40
2021/04/29 02:17:56;;;;;;;1.08;1.08;;;22.40;44.80;;;;;;5087665;28;20520;-40
2021/04/29 02:20:22;;;;;;;1.30;1.30;;;22.40;44.90;;;;;;5090737;28;20028;-39
2021/04/29 02:22:48;;;;;;;1.30;1.25;;;22.40;44.90;;;;;;5091365;28;20073;-37
2021/04/29 02:25:14;;;;;;;1.20;1.20;;;22.40;44.90;;;;;;5076478;28;20037;-39
2021/04/29 02:27:40;;;;;;;1.15;1.15;;;22.40;45.00;;;;;;5110709;28;20018;-36
2021/04/29 02:30:13;;;;;;;1.30;1.30;;;22.30;45.10;;;;;;5091411;28;20028;-40
2021/04/29 02:32:38;;;;;;;1.63;1.52;;;22.30;45.20;;;;;;5109339;28;20028;-39
2021/04/29 02:35:06;;;;;;;1.30;1.20;;;22.30;45.10;;;;;;5089144;28;20026;-39
2021/04/29 02:37:31;;;;;;;1.48;1.38;;;22.30;45.20;;;;;;5102745;28;20040;-40
2021/04/29 02:39:58;;;;;;;1.13;1.13;;;22.30;45.10;;;;;;5109471;28;20027;-40
2021/04/29 02:42:23;;;;;;;1.40;1.30;;;22.30;45.10;;;;;;5075267;28;20031;-41
2021/04/29 02:44:49;;;;;;;1.20;1.20;;;22.30;45.10;;;;;;5108508;28;20099;-39
2021/04/29 02:47:15;;;;;;;1.50;1.40;;;22.30;45.10;;;;;;5110344;28;20023;-41
2021/04/29 02:49:41;;;;;;;1.20;1.20;;;22.30;45.10;;;;;;5073881;28;20020;-38
2021/04/29 02:52:08;;;;;;;1.20;1.10;;;22.30;45.10;;;;;;5113000;28;20024;-40
2021/04/29 02:54:33;;;;;;;1.08;1.08;;;22.30;45.10;;;;;;5092724;28;20562;-36
2021/04/29 02:56:59;;;;;;;1.20;1.20;;;22.30;45.10;;;;;;5075560;28;20020;-39
2021/04/29 02:59:24;;;;;;;1.20;1.17;;;22.30;45.10;;;;;;5090558;28;20545;-40
2021/04/29 03:01:50;;;;;;;1.10;1.10;;;22.20;45.10;;;;;;5092666;28;20450;-38
2021/04/29 03:04:16;;;;;;;1.10;1.10;;;22.20;45.20;;;;;;5112096;28;20102;-41
2021/04/29 03:06:41;;;;;;;1.10;1.10;;;22.20;45.20;;;;;;5111414;28;20110;-40
2021/04/29 03:09:07;;;;;;;1.33;1.23;;;22.20;45.70;;;;;;5108707;28;20023;-41
2021/04/29 03:11:33;;;;;;;1.35;1.25;;;22.20;45.10;;;;;;5108511;28;20023;-37
2021/04/29 03:13:59;;;;;;;1.25;1.15;;;22.20;45.00;;;;;;5090955;28;20066;-36
2021/04/29 03:16:25;;;;;;;0.90;0.90;;;22.20;45.00;;;;;;5110356;28;20517;-39
2021/04/29 03:18:50;;;;;;;1.30;1.30;;;22.20;45.10;;;;;;5112128;28;20062;-37
2021/04/29 03:21:16;;;;;;;1.40;1.30;;;22.10;45.00;;;;;;5088856;28;20063;-38
2021/04/29 03:23:41;;;;;;;1.63;1.52;;;22.20;45.10;;;;;;5102287;28;20034;-39
2021/04/29 03:26:07;;;;;;;1.30;1.20;;;22.10;45.10;;;;;;5108896;28;20489;-39
2021/04/29 03:28:32;;;;;;;1.30;1.20;;;22.10;45.70;;;;;;5109616;28;20396;-39
2021/04/29 03:30:58;;;;;;;1.50;1.40;;;22.10;45.10;;;;;;5094228;28;20092;-36
2021/04/29 03:33:24;;;;;;;1.30;1.30;;;22.10;45.20;;;;;;5109140;28;20113;-37
2021/04/29 03:35:49;;;;;;;1.40;1.30;;;22.10;45.20;;;;;;5109326;28;20048;-39
2021/04/29 03:38:15;;;;;;;1.10;1.10;;;22.10;45.80;;;;;;5109960;28;20046;-34
2021/04/29 03:40:40;;;;;;;1.33;1.23;;;22.10;45.30;;;;;;5093171;28;20061;-40
2021/04/29 03:43:06;;;;;;;1.48;1.40;;;22.10;45.90;;;;;;5112406;28;20050;-38
2021/04/29 03:45:32;;;;;;;1.00;1.00;;;22.10;45.10;;;;;;5109533;28;20063;-38
2021/04/29 03:47:57;;;;;;;1.60;1.60;;;22.10;45.10;;;;;;5108456;28;20023;-38
2021/04/29 03:50:23;;;;;;;1.38;1.30;;;22.10;45.10;;;;;;5109078;28;20077;-38
2021/04/29 03:52:49;;;;;;;1.60;1.50;;;22.10;45.10;;;;;;5110066;28;20034;-39
2021/04/29 03:55:14;;;;;;;1.58;1.48;;;22.10;45.20;;;;;;5112432;28;20027;-37
2021/04/29 03:57:40;;;;;;;1.10;1.10;;;22.10;45.20;;;;;;5114812;28;20032;-39
2021/04/29 04:00:06;;;;;;;1.27;1.17;;;22.10;45.20;;;;;;5096114;28;20047;-39
2021/04/29 04:02:31;;;;;;;1.23;1.23;;;22.10;45.20;;;;;;5113424;28;20082;-38
2021/04/29 04:04:57;;;;;;;1.35;1.35;;;22.10;45.20;;;;;;5112104;28;20494;-38
2021/04/29 04:07:23;;;;;;;1.23;1.23;;;22.10;45.30;;;;;;5114340;28;20406;-38
2021/04/29 04:09:48;;;;;;;1.23;1.23;;;22.10;45.30;;;;;;5113656;28;20081;-39
2021/04/29 04:12:14;;;;;;;1.20;1.10;;;22.00;45.30;;;;;;5111309;28;20114;-39
2021/04/29 04:14:39;;;;;;;1.63;1.33;;;22.10;45.40;;;;;;5113864;28;20023;-36
2021/04/29 04:17:05;;;;;;;2.22;1.40;;;22.00;45.30;;;;;;5092163;28;20103;-39
2021/04/29 04:19:30;;;;;;;1.42;1.38;;;22.00;45.30;;;;;;5113384;28;20039;-37
2021/04/29 04:21:56;;;;;;;1.48;1.38;;;22.00;45.30;;;;;;5115950;28;20445;-38
2021/04/29 04:24:21;;;;;;;1.58;1.42;;;22.00;45.40;;;;;;5111230;28;20046;-39
2021/04/29 04:26:47;;;;;;;1.40;1.40;;;22.00;45.20;;;;;;5109641;28;20019;-39
2021/04/29 04:29:13;;;;;;;1.23;1.23;;;22.00;45.30;;;;;;5110967;28;20491;-38
2021/04/29 04:31:38;;;;;;;1.27;1.27;;;22.00;45.40;;;;;;5112150;28;20020;-39
2021/04/29 04:34:04;;;;;;;1.40;1.30;;;22.10;45.40;;;;;;5115376;28;20481;-38
2021/04/29 04:36:29;;;;;;;1.10;1.10;;;22.00;45.20;;;;;;5109315;28;20036;-40
2021/04/29 04:38:55;;;;;;;1.35;1.35;;;22.00;45.90;;;;;;5110767;28;20105;-38
2021/04/29 04:41:20;;;;;;;1.10;1.10;;;22.00;45.40;;;;;;5105546;28;20030;-39
2021/04/29 04:43:46;;;;;;;1.35;1.27;;;22.00;45.50;;;;;;5109784;28;20061;-39
2021/04/29 04:46:11;;;;;;;1.33;1.27;;;22.00;45.30;;;;;;5108166;28;20055;-40
2021/04/29 04:48:37;;;;;;;1.33;1.33;;;22.00;45.30;;;;;;5111611;28;20062;-41
2021/04/29 04:51:03;;;;;;;1.67;1.58;;;22.00;45.10;;;;;;5107965;28;20016;-40
2021/04/29 04:53:28;;;;;;;1.30;1.30;;;21.90;45.20;;;;;;5105799;28;20076;-36
2021/04/29 04:55:54;;;;;;;1.45;1.35;;;22.00;46.90;;;;;;5110853;28;20030;-39
2021/04/29 04:58:19;;;;;;;1.60;1.50;;;22.00;46.70;;;;;;5113473;28;20039;-40
2021/04/29 05:00:48;;;;;;;1.33;1.33;;;21.90;46.80;;;;;;5100434;28;20019;-37
2021/04/29 05:03:13;;;;;;;1.23;1.23;;;21.90;46.90;;;;;;5089972;28;20066;-38
2021/04/29 05:05:40;;;;;;;1.38;1.38;;;21.90;47.20;;;;;;5103243;28;20032;-40
2021/04/29 05:08:06;;;;;;;1.52;1.42;;;21.90;47.30;;;;;;5105601;28;20042;-38
2021/04/29 05:10:33;;;;;;;1.48;1.05;;;21.90;47.50;;;;;;5088587;28;20039;-39
2021/04/29 05:13:02;;;;;;;1.08;1.08;;;21.90;47.60;;;;;;5070933;28;20028;-37
2021/04/29 05:15:28;;;;;;;1.17;1.17;;;21.90;47.70;;;;;;5108516;28;20023;-38
2021/04/29 05:17:54;;;;;;;1.30;1.20;;;21.80;47.90;;;;;;5112147;28;20024;-38
2021/04/29 05:20:19;;;;;;;1.27;1.27;;;21.90;47.90;;;;;;5111357;28;20019;-39
2021/04/29 05:22:46;;;;;;;1.38;1.30;;;21.90;48.00;;;;;;5093419;28;20032;-38
2021/04/29 05:25:12;;;;;;;1.60;1.20;;;21.90;48.00;;;;;;5109193;28;20031;-39
2021/04/29 05:27:37;;;;;;;1.52;1.42;;;21.90;48.00;;;;;;5111111;28;20054;-40
2021/04/29 05:30:04;;;;;;;2.05;1.30;;;21.90;48.10;;;;;;5112437;28;20024;-37
2021/04/29 05:32:30;;;;;;;1.45;1.35;;;21.90;48.10;;;;;;5090584;28;20485;-39
2021/04/29 05:34:56;;;;;;;1.25;1.25;;;21.90;48.20;;;;;;5110752;28;20065;-35
2021/04/29 05:37:22;;;;;;;1.20;1.20;;;21.80;48.20;;;;;;5113174;28;20086;-39
2021/04/29 05:39:47;;;;;;;1.48;1.38;;;21.80;48.40;;;;;;5113944;28;20450;-38
2021/04/29 05:42:13;;;;;;;1.10;1.10;;;21.80;48.40;;;;;;5110669;28;20507;-41
2021/04/29 05:44:38;;;;;;;1.20;1.20;;;21.80;48.40;;;;;;5082337;28;20450;-39
2021/04/29 05:47:04;;;;;;;1.38;1.27;;;21.80;48.40;;;;;;5107433;28;20056;-40
2021/04/29 05:49:29;;;;;;;1.00;1.00;;;21.90;48.50;;;;;;5104208;28;20043;-43
2021/04/29 05:51:55;;;;;;;1.13;1.13;;;21.80;48.80;;;;;;5106130;28;20035;-40
2021/04/29 05:54:21;;;;;;;1.40;1.30;;;21.80;49.00;;;;;;5107562;28;20047;-42
2021/04/29 05:56:46;;;;;;;1.38;1.38;;;21.70;49.20;;;;;;5110670;28;20035;-39
2021/04/29 05:59:12;;;;;;;1.33;1.33;;;21.80;49.00;;;;;;5110142;28;20075;-39
2021/04/29 06:01:37;;;;;;;1.55;1.17;;;21.80;48.80;;;;;;5110731;28;20397;-40
2021/04/29 06:04:03;;;;;;;1.50;1.40;;;21.80;48.60;;;;;;5112142;28;20039;-41
2021/04/29 06:06:28;;;;;;;1.40;1.30;;;21.90;48.40;;;;;;5110285;28;20533;-42
2021/04/29 06:08:54;;;;;;;1.30;1.30;;;21.90;49.10;;;;;;5109671;28;20024;-42
2021/04/29 06:11:20;;;;;;;1.70;1.60;;;21.90;48.40;;;;;;5109527;28;20106;-41
2021/04/29 06:13:45;;;;;;;1.55;1.45;;;21.90;48.30;;;;;;5092291;28;20032;-39
2021/04/29 06:16:13;;;;;;;1.30;1.30;;;21.80;48.30;;;;;;5108158;28;20027;-42
2021/04/29 06:18:39;;;;;;;1.10;1.10;;;21.90;48.30;;;;;;5099893;28;20024;-41
2021/04/29 06:21:05;;;;;;;1.52;1.42;;;21.90;48.20;;;;;;5100317;28;20022;-41
2021/04/29 06:23:32;;;;;;;1.67;1.58;;;21.90;48.20;;;;;;5100034;28;20028;-42
2021/04/29 06:25:58;;;;;;;1.27;1.20;;;21.90;48.10;;;;;;5101353;27;20032;-40
2021/04/29 06:28:23;;;;;;;1.50;1.40;;;21.90;48.10;;;;;;5105685;28;20047;-42
2021/04/29 06:30:49;;;;;;;1.35;1.25;;;21.90;48.00;;;;;;5087539;28;20513;-41
2021/04/29 06:33:14;;;;;;;1.42;1.33;;;21.80;49.50;;;;;;5100811;28;20039;-42
2021/04/29 06:35:40;;;;;;;1.13;1.13;;;21.80;48.80;;;;;;5103375;28;20398;-37
2021/04/29 06:38:05;;;;;;;1.10;1.10;;;21.80;49.70;;;;;;5079579;28;20039;-39
2021/04/29 06:40:31;;;;;;;1.20;1.20;;;21.80;49.70;;;;;;5101451;28;20074;-39
2021/04/29 06:42:57;;;;;;;0.95;0.95;;;21.90;49.50;;;;;;5108477;28;20036;-37
2021/04/29 06:45:22;;;;;;;1.00;1.00;;;22.00;49.40;;;;;;5083132;28;20505;-38
2021/04/29 06:47:49;;;;;;;4.30;1.20;;;22.00;49.20;;;;;;5102031;28;20043;-39
2021/04/29 06:50:14;;;;;;;1.52;1.42;;;22.00;48.90;;;;;;5106051;28;20039;-39
2021/04/29 06:52:40;;;;;;;1.10;1.10;;;22.00;48.70;;;;;;5098464;28;20044;-40
2021/04/29 06:55:06;;;;;;;1.15;1.05;;;21.80;49.00;;;;;;5090031;28;20390;-40
2021/04/29 06:57:32;;;;;;;1.02;1.02;;;21.80;49.00;;;;;;5108710;28;20043;-42
2021/04/29 06:59:57;;;;;;;1.45;1.35;;;21.80;48.90;;;;;;5104724;28;20085;-41
2021/04/29 07:02:23;;;;;;;2.00;1.20;;;21.90;48.70;;;;;;5103413;28;20019;-41
2021/04/29 07:04:49;;;;;;;1.10;1.10;;;21.90;48.50;;;;;;5105172;28;20036;-42
2021/04/29 07:07:14;;;;;;;1.55;1.45;;;21.90;48.50;;;;;;5107033;28;20043;-43
2021/04/29 07:09:40;;;;;;;1.70;1.40;;;21.90;48.20;;;;;;5106328;28;20488;-42
2021/04/29 07:12:06;;;;;;;1.13;1.10;;;21.90;48.20;;;;;;5088513;28;20435;-42
2021/04/29 07:14:31;;;;;;;2.15;1.50;;;21.90;48.10;;;;;;5089411;28;20043;-42
2021/04/29 07:16:57;;;;;;;1.35;1.25;;;21.90;48.20;;;;;;5102828;28;20044;-42
2021/04/29 07:19:22;;;;;;;1.50;1.40;;;21.90;48.00;;;;;;5104995;28;20085;-42
2021/04/29 07:21:48;;;;;;;1.80;1.70;;;22.00;48.10;;;;;;5104046;28;20039;-43
2021/04/29 07:24:13;;;;;;;1.92;1.80;;;22.00;47.80;;;;;;5107322;28;20122;-41
2021/04/29 07:26:39;;;;;;;1.50;1.30;;;22.00;47.80;;;;;;5108100;28;20365;-42
2021/04/29 07:29:05;;;;;;;1.70;1.58;;;22.00;48.10;;;;;;5105350;28;20051;-38
2021/04/29 07:31:30;;;;;;;1.55;1.45;;;22.00;47.90;;;;;;5108213;28;20059;-43
2021/04/29 07:33:56;;;;;;;1.60;1.50;;;22.00;47.80;;;;;;5104811;28;20131;-43
2021/04/29 07:36:22;;;;;;;1.92;1.65;;;22.00;48.60;;;;;;5106091;28;20067;-43
2021/04/29 07:38:48;;;;;;;1.60;1.50;;;22.00;47.90;;;;;;5102211;28;20058;-40
2021/04/29 07:41:13;;;;;;;1.80;1.50;;;22.00;47.80;;;;;;5090447;28;20036;-43
2021/04/29 07:43:39;;;;;;;1.90;1.80;;;22.00;48.30;;;;;;5108958;28;20043;-43
2021/04/29 07:46:04;;;;;;;2.28;1.48;;;22.10;48.00;;;;;;5103459;28;20047;-40
2021/04/29 07:48:30;;;;;;;1.75;1.65;;;22.00;47.80;;;;;;5107128;28;20127;-46
2021/04/29 07:50:56;;;;;;;4.30;1.70;;;22.10;47.80;;;;;;5107506;28;20059;-43
2021/04/29 07:53:22;;;;;;;1.60;1.50;;;22.10;48.10;;;;;;5107931;28;20097;-43
2021/04/29 07:55:47;;;;;;;2.65;1.63;;;22.10;47.80;;;;;;5105690;28;20428;-43
2021/04/29 07:58:13;;;;;;;2.10;1.42;;;22.10;47.60;;;;;;5097338;28;20131;-44
2021/04/29 08:00:38;;;;;;;2.05;1.25;;;22.10;47.50;;;;;;5108373;28;20067;-42
2021/04/29 08:03:05;;;;;;;1.63;1.35;;;22.10;47.30;;;;;;5106078;28;20051;-38
2021/04/29 08:05:30;;;;;;;1.70;1.60;;;22.10;47.30;;;;;;5107929;28;20111;-43
2021/04/29 08:07:57;;;;;;;2.00;1.80;;;22.10;47.30;;;;;;5104413;28;20123;-43
2021/04/29 08:10:23;;;;;;;2.67;1.13;;;22.10;47.30;;;;;;5108691;28;20035;-41
2021/04/29 08:12:48;;;;;;;2.17;1.50;;;22.10;47.30;;;;;;5079617;28;20074;-43
2021/04/29 08:15:14;;;;;;;1.25;1.15;;;22.10;47.60;;;;;;5104307;28;20524;-44
2021/04/29 08:17:40;;;;;;;1.65;1.55;;;22.10;47.30;;;;;;5095798;28;20062;-38
2021/04/29 08:20:06;;;;;;;1.45;1.35;;;22.10;47.60;;;;;;5092823;28;20138;-41
2021/04/29 08:22:31;;;;;;;1.13;1.10;;;22.20;47.50;;;;;;5077854;28;20044;-41
2021/04/29 08:24:57;;;;;;;1.33;1.20;;;22.20;47.30;;;;;;5095008;28;20047;-42
2021/04/29 08:27:23;;;;;;;1.70;1.60;;;22.20;47.10;;;;;;5092152;28;20055;-43
2021/04/29 08:29:49;;;;;;;4.68;2.00;;;22.30;47.60;;;;;;5092611;28;20052;-42
2021/04/29 08:32:15;;;;;;;1.50;1.30;;;22.40;47.00;;;;;;5093244;28;20108;-45
2021/04/29 08:34:40;;;;;;;1.48;1.38;;;22.30;46.80;;;;;;5100966;28;20127;-43
2021/04/29 08:37:06;;;;;;;1.60;1.50;;;22.40;46.80;;;;;;5094645;28;20156;-46
2021/04/29 08:39:32;;;;;;;1.67;1.58;;;22.50;46.50;;;;;;5096423;28;20093;-43
2021/04/29 08:41:57;;;;;;;1.70;1.60;;;22.60;46.30;;;;;;5097296;28;20039;-43
2021/04/29 08:44:23;;;;;;;2.78;1.85;;;22.60;46.20;;;;;;5097713;28;20050;-42
2021/04/29 08:46:48;;;;;;;1.98;1.52;;;22.70;46.10;;;;;;5095499;28;20035;-43
2021/04/29 08:49:15;;;;;;;2.60;1.60;;;22.70;46.70;;;;;;5084175;28;20046;-43
2021/04/29 08:51:40;;;;;;;2.47;1.70;;;22.60;46.10;;;;;;5103354;28;20055;-40
2021/04/29 08:54:06;;;;;;;2.15;1.50;;;22.60;46.10;;;;;;5077804;28;20044;-43
2021/04/29 08:56:32;;;;;;;1.98;1.88;;;22.60;45.90;;;;;;5105037;28;20044;-44
2021/04/29 08:58:58;;;;;;;3.58;1.73;;;22.50;46.00;;;;;;5098766;28;20498;-42
2021/04/29 09:01:24;;;;;;;2.58;1.83;;;22.50;45.90;;;;;;5108695;28;20051;-44
2021/04/29 09:03:50;;;;;;;1.83;1.52;;;22.40;46.20;;;;;;5100708;28;20520;-44
2021/04/29 09:06:15;;;;;;;2.58;1.60;;;22.40;46.30;;;;;;5084941;28;20028;-44
2021/04/29 09:08:41;;;;;;;1.63;1.52;;;22.50;46.20;;;;;;5101849;28;20015;-44
2021/04/29 09:11:11;;;;;;;2.92;1.35;;;22.40;46.00;;;;;;5100582;28;20489;-43
2021/04/29 09:13:37;;;;;;;2.45;1.60;;;22.50;46.00;;;;;;5094480;28;20051;-43
2021/04/29 09:16:10;;;;;;;1.88;1.75;;;22.50;46.10;;;;;;5106907;28;20044;-43
2021/04/29 09:18:36;;;;;;;2.25;1.75;;;22.50;45.90;;;;;;5099813;28;20051;-43
2021/04/29 09:21:07;;;;;;;2.35;1.63;;;22.60;46.00;;;;;;5099115;28;20051;-38
2021/04/29 09:23:37;;;;;;;2.47;2.00;;;22.70;45.70;;;;;;5096600;28;20040;-39
2021/04/29 09:26:05;;;;;;;1.92;1.77;;;22.70;45.30;;;;;;5099520;28;20055;-40
2021/04/29 09:28:42;;;;;;;2.08;1.88;;;22.60;45.20;;;;;;5092483;28;20076;-35
2021/04/29 09:31:13;;;;;;;3.20;2.08;;;22.70;45.50;;;;;;5103048;28;20180;-42
2021/04/29 09:33:41;;;;;;;1.83;1.42;;;22.70;45.50;;;;;;5103555;28;20054;-45
2021/04/29 09:36:08;;;;;;;2.55;2.03;;;22.60;46.70;;;;;;5103942;28;20066;-46
2021/04/29 09:38:38;;;;;;;1.98;1.83;;;22.60;45.90;;;;;;5091264;28;20537;-44
2021/04/29 09:41:05;;;;;;;2.53;1.90;;;22.80;45.80;;;;;;5100599;28;20051;-42
2021/04/29 09:43:31;;;;;;;2.38;1.83;;;22.90;46.60;;;;;;5071622;28;20032;-39
2021/04/29 09:45:58;;;;;;;3.17;2.03;;;23.10;45.80;;;;;;5103551;28;20509;-42
2021/04/29 09:48:33;;;;;;;6.95;2.83;;;23.10;45.50;;;;;;5102389;28;20415;-44
2021/04/29 09:50:58;;;;;;;5.30;4.90;;;23.00;45.90;;;;;;5094973;28;20040;-44
2021/04/29 09:53:24;;;;;;;5.40;5.00;;;23.10;45.20;;;;;;5096032;28;20405;-43
2021/04/29 09:55:50;;;;;;;6.75;6.07;;;23.20;45.80;;;;;;5095228;28;20063;-42
2021/04/29 09:58:17;;;;;;;7.38;6.88;;;23.10;45.70;;;;;;5101955;28;20043;-41
2021/04/29 10:00:50;;;;;;;8.57;7.88;;;23.20;45.50;;;;;;5102768;28;20052;-42
2021/04/29 10:03:16;;;;;;;9.45;8.65;;;23.20;45.20;;;;;;5098934;28;20059;-42
2021/04/29 10:05:42;;;;;;;10.32;9.25;;;23.30;43.80;;;;;;5100261;28;20122;-38
2021/04/29 10:08:15;;;;;;;8.63;7.50;;;23.30;43.20;;;;;;5095242;28;20413;-42
2021/04/29 10:10:45;;;;;;;9.52;7.32;;;23.20;42.20;;;;;;5095766;28;20394;-39
2021/04/29 10:13:10;;;;;;;7.13;6.45;;;23.20;42.30;;;;;;5090164;28;20111;-41
2021/04/29 10:15:40;;;;;;;7.30;5.88;;;23.20;41.60;;;;;;5095041;28;20163;-42
2021/04/29 10:18:06;;;;;;;5.35;4.95;;;23.20;41.50;;;;;;5087389;28;20056;-39
2021/04/29 10:20:32;;;;;;;6.13;5.63;;;23.20;41.00;;;;;;5099468;28;20048;-40
2021/04/29 10:22:59;;;;;;;7.45;5.60;;;23.10;40.50;;;;;;5095848;28;20043;-39
2021/04/29 10:25:48;;;;;;;6.47;5.10;;;23.20;40.30;;;;;;5076555;28;20048;-39
2021/04/29 10:28:14;;;;;;;6.00;4.60;;;23.10;40.20;;;;;;5096610;28;20020;-40
2021/04/29 10:30:39;;;;;;;5.93;5.07;;;23.20;39.40;;;;;;5099455;28;20046;-39
2021/04/29 10:33:34;;;;;;;7.93;4.35;;;23.20;39.80;;;;;;5092778;28;20528;-44
2021/04/29 10:36:10;;;;;;;4.50;4.19;;;23.20;38.90;;;;;;5010084;28;10001401;-43
2021/04/29 10:38:36;;;;;;;3.67;3.42;;;23.10;40.00;;;;;;5095511;28;20264;-43
2021/04/29 10:41:22;;;;;;;4.55;4.15;;;23.10;39.70;;;;;;5093993;28;20047;-42
2021/04/29 10:43:48;;;;;;;3.50;3.30;;;22.90;39.80;;;;;;5091988;28;20023;-43
2021/04/29 10:46:31;;;;;;;3.63;3.33;;;23.00;40.00;;;;;;5098541;28;20039;-42
2021/04/29 10:48:58;;;;;;;5.40;3.08;;;23.00;39.60;;;;;;5101976;28;20136;-42
2021/04/29 10:51:37;;;;;;;5.65;3.10;;;23.00;39.60;;;;;;5096869;28;20056;-40
2021/04/29 10:54:20;;;;;;;3.67;3.30;;;23.10;39.40;;;;;;5079705;28;20131;-40
2021/04/29 10:57:08;;;;;;;3.50;3.25;;;23.10;38.70;;;;;;5095721;28;20112;-42
2021/04/29 10:59:47;;;;;;;4.40;3.40;;;22.90;40.90;;;;;;5101870;28;20059;-40
2021/04/29 11:02:30;;;;;;;3.30;3.00;;;22.70;40.70;;;;;;5068589;28;20035;-42
2021/04/29 11:04:56;;;;;;;2.95;2.63;;;22.50;40.40;;;;;;5091929;28;20114;-41
2021/04/29 11:07:22;;;;;;;4.53;3.08;;;22.30;41.50;;;;;;5092245;28;20148;-42
2021/04/29 11:10:03;;;;;;;3.78;2.75;;;22.30;42.20;;;;;;5096760;28;20040;-40
2021/04/29 11:12:44;;;;;;;2.85;2.65;;;22.20;41.40;;;;;;5101605;28;20074;-40
2021/04/29 11:15:32;;;;;;;3.17;2.88;;;22.10;41.20;;;;;;5098846;28;20044;-37
2021/04/29 11:18:08;;;;;;;4.78;2.63;;;22.10;41.80;;;;;;5081318;28;20058;-39
2021/04/29 11:20:49;;;;;;;5.97;2.47;;;22.20;42.40;;;;;;5095425;28;20070;-39
2021/04/29 11:23:19;;;;;;;3.38;2.50;;;22.40;42.50;;;;;;5099680;28;20027;-42
2021/04/29 11:25:45;;;;;;;3.72;2.30;;;22.30;42.90;;;;;;5098097;28;20028;-43
2021/04/29 11:28:11;;;;;;;3.60;2.67;;;22.20;42.50;;;;;;5092548;28;20059;-37
2021/04/29 11:30:40;;;;;;;2.50;2.30;;;22.30;42.70;;;;;;5098930;28;20081;-34
2021/04/29 11:33:08;;;;;;;2.47;2.22;;;22.40;42.60;;;;;;5098601;28;20505;-42
2021/04/29 11:35:35;;;;;;;4.40;2.30;;;22.40;42.70;;;;;;5091883;28;20533;-41
2021/04/29 11:38:02;;;;;;;3.00;1.95;;;22.50;42.90;;;;;;5091097;28;20051;-42
2021/04/29 11:40:28;;;;;;;2.58;2.30;;;22.60;42.60;;;;;;5093500;28;20056;-38
2021/04/29 11:42:55;;;;;;;2.40;2.20;;;22.50;43.00;;;;;;5075367;28;20046;-43
2021/04/29 11:45:35;;;;;;;2.60;2.30;;;22.50;43.10;;;;;;5089157;28;20055;-41
2021/04/29 11:48:09;;;;;;;4.55;1.70;;;22.60;43.00;;;;;;5089322;28;20040;-42
2021/04/29 11:50:48;;;;;;;2.55;2.35;;;22.70;43.20;;;;;;5089320;28;20054;-39
2021/04/29 11:53:17;;;;;;;2.15;2.03;;;22.70;43.20;;;;;;5092839;28;20975;-41
2021/04/29 11:55:49;;;;;;;2.13;1.92;;;22.70;43.20;;;;;;5091452;28;20513;-39
2021/04/29 11:58:18;;;;;;;2.60;2.10;;;22.60;43.50;;;;;;5086922;28;20052;-40
2021/04/29 12:00:52;;;;;;;2.38;2.10;;;22.60;43.60;;;;;;5078337;28;20096;-42
2021/04/29 12:03:17;;;;;;;3.47;2.03;;;22.60;43.80;;;;;;5069199;28;20052;-40
2021/04/29 12:05:44;;;;;;;2.80;1.98;;;22.50;44.00;;;;;;5091514;28;20050;-43
2021/04/29 12:08:21;;;;;;;4.65;2.08;;;22.40;44.30;;;;;;5056089;28;20036;-43
2021/04/29 12:10:53;;;;;;;1.92;1.83;;;22.50;44.20;;;;;;5091824;28;20421;-44
2021/04/29 12:13:42;;;;;;;2.58;2.38;;;22.70;44.00;;;;;;5094524;28;20046;-43
2021/04/29 12:16:28;;;;;;;2.03;1.83;;;22.70;44.10;;;;;;5092008;28;20061;-43
2021/04/29 12:18:56;;;;;;;2.45;2.25;;;22.80;44.30;;;;;;5097698;28;20044;-43
2021/04/29 12:21:22;;;;;;;3.33;1.90;;;22.80;44.10;;;;;;5090602;28;20055;-38
2021/04/29 12:23:57;;;;;;;2.33;1.77;;;22.90;44.30;;;;;;5088705;28;20074;-40
2021/04/29 12:26:33;;;;;;;2.45;1.88;;;22.90;43.90;;;;;;5105285;28;20043;-40
2021/04/29 12:29:04;;;;;;;1.73;1.55;;;22.90;43.90;;;;;;5099647;28;20035;-45
2021/04/29 12:31:30;;;;;;;2.05;1.75;;;22.90;44.30;;;;;;5081592;28;20043;-45
2021/04/29 12:34:06;;;;;;;1.67;1.58;;;22.90;44.30;;;;;;5097291;28;20044;-41
2021/04/29 12:36:35;;;;;;;1.90;1.80;;;23.00;44.30;;;;;;5084547;28;20040;-41
2021/04/29 12:39:14;;;;;;;3.70;1.83;;;23.10;44.20;;;;;;5096371;28;20071;-40
2021/04/29 12:41:40;;;;;;;2.10;1.65;;;23.10;44.30;;;;;;5093186;28;20413;-43
2021/04/29 12:44:05;;;;;;;1.63;1.52;;;23.10;43.90;;;;;;5072738;28;20816;-43
2021/04/29 12:46:35;;;;;;;1.73;1.63;;;23.20;44.10;;;;;;5078862;28;20520;-43
2021/04/29 12:49:00;;;;;;;2.17;1.92;;;23.10;44.30;;;;;;5103257;28;20112;-38